Weather reports worldwide

Advertisment
Villardeciervos, Spain (8125): temperature & dewpoint: 13.03.2019 10:00:00 - 19.03.2019 10:00:00 (CET)Villardeciervos, Spain (8125): wind speed & gusts: 13.03.2019 10:00:00 - 19.03.2019 10:00:00 (CET)Villardeciervos, Spain (8125): wind direction: 13.03.2019 10:00:00 - 19.03.2019 10:00:00 (CET)Villardeciervos, Spain (8125): visibility: 13.03.2019 10:00:00 - 19.03.2019 10:00:00 (CET)Villardeciervos, Spain (8125): sunshine duration: 13.03.2019 10:00:00 - 19.03.2019 10:00:00 (CET)Villardeciervos, Spain (8125): precipitation: 13.03.2019 10:00:00 - 19.03.2019 10:00:00 (CET)
Date & Time tt [°C] td [°C] ff [km/h] ff [kn] fx [km/h] fx [kn] dd vv [km] sd [min] rr [mm]
19.03.2019 10:00:00 - - - - - - - - - -
19.03.2019 09:00:00 3,2 -0,7 4 2 10 5 S 20 54 0,0
19.03.2019 08:00:00 -1,9 -3,6 4 2 11 6 S 20 21 0,0
19.03.2019 07:00:00 -3,4 -5,1 3 2 10 6 S 20 0 -
19.03.2019 06:00:00 -2,5 -4,2 4 2 6 4 S 20 0 0,0
19.03.2019 05:00:00 -2,4 -4,2 4 2 8 4 SE 20 0 0,0
19.03.2019 04:00:00 -2,7 -4,8 4 2 6 3 S 20 0 0,0
19.03.2019 03:00:00 -2,0 -4,8 2 1 5 3 SSW 20 0 0,0
19.03.2019 02:00:00 -1,4 -4,5 1 1 6 4 SSW 20 0 0,0
19.03.2019 01:00:00 -0,6 -4,2 2 1 7 4 SSW 20 0 -
19.03.2019 00:00:00 -0,1 -4,5 1 1 5 3 E 20 0 0,0
18.03.2019 23:00:00 1,0 -3,6 1 1 7 4 NW 20 0 0,0
18.03.2019 22:00:00 2,8 -3,3 2 1 9 5 W 20 0 0,0
18.03.2019 21:00:00 4,5 -3,3 5 3 13 7 S 20 0 0,0
18.03.2019 20:00:00 7,0 -3,3 8 4 18 10 S 20 0 0,0
18.03.2019 19:00:00 10,2 -3,3 5 3 16 9 SE 20 48 -
18.03.2019 18:00:00 11,8 -4,8 5 3 20 11 E 20 47 0,0
18.03.2019 17:00:00 12,9 -4,8 6 3 18 10 E 20 60 0,0
18.03.2019 16:00:00 12,8 -4,5 6 4 23 12 E 20 60 0,0
18.03.2019 15:00:00 12,6 -4,5 11 6 29 16 E 20 60 0,0
18.03.2019 14:00:00 11,9 -4,8 10 5 24 13 ENE 20 60 0,0
18.03.2019 13:00:00 10,7 -3,9 9 5 28 15 E 20 60 -
18.03.2019 12:00:00 9,3 -3,9 10 6 30 16 E 20 60 0,0
18.03.2019 11:00:00 8,0 -4,2 9 5 22 12 E 20 60 0,0
18.03.2019 10:00:00 5,6 -3,3 6 3 13 7 NE 20 60 0,0
18.03.2019 09:00:00 1,2 -3,6 3 2 6 3 N 20 52 0,0
18.03.2019 08:00:00 -3,2 -6,4 4 2 13 7 SSE 20 22 0,0
18.03.2019 07:00:00 -2,5 -5,7 2 1 6 3 N 20 0 -
18.03.2019 06:00:00 -2,0 -5,4 1 1 6 3 E 20 0 0,0
18.03.2019 05:00:00 -1,6 -5,4 1 1 8 4 NNE 20 0 0,0
18.03.2019 04:00:00 -0,8 -5,1 2 1 12 6 N 20 0 0,0
18.03.2019 03:00:00 0,6 -4,2 5 3 15 8 E 20 0 0,0
18.03.2019 02:00:00 1,6 -3,6 3 2 22 12 E 20 0 0,0
18.03.2019 01:00:00 2,8 -3,0 8 4 20 11 E 20 0 -
18.03.2019 00:00:00 3,4 -2,7 8 4 19 10 E 20 0 0,0
17.03.2019 23:00:00 4,2 -3,0 9 5 29 15 E 20 0 0,0
17.03.2019 22:00:00 5,4 -3,0 14 7 26 14 E 20 0 0,0
17.03.2019 21:00:00 6,8 -2,7 12 6 29 15 E 20 0 0,0
17.03.2019 20:00:00 9,3 -1,4 9 5 24 13 E 20 0 0,0
17.03.2019 19:00:00 11,4 -1,7 6 3 22 12 NE 20 5 -
17.03.2019 18:00:00 12,3 -1,7 11 6 26 14 ENE 20 0 0,0
17.03.2019 17:00:00 14,0 0,0 11 6 25 13 ENE 20 33 0,0
17.03.2019 16:00:00 15,1 -0,7 8 4 22 12 ENE 20 22 0,0
17.03.2019 15:00:00 15,0 0,4 4 2 27 14 SW 20 33 0,0
17.03.2019 14:00:00 15,1 1,7 11 6 29 16 W 20 38 0,0
17.03.2019 13:00:00 13,6 3,0 14 8 39 21 W 20 18 -
17.03.2019 12:00:00 14,1 3,6 11 6 26 14 SSW 20 50 0,0
17.03.2019 11:00:00 12,9 3,2 10 6 24 13 WSW 20 60 0,0
17.03.2019 10:00:00 10,7 2,5 7 4 15 8 SW 20 60 0,0
17.03.2019 09:00:00 7,2 1,7 5 3 18 10 S 20 45 0,0
17.03.2019 08:00:00 2,8 0,0 5 3 13 7 S 20 5 0,0
17.03.2019 07:00:00 2,7 -0,5 6 3 19 10 SSE 20 0 -
17.03.2019 06:00:00 3,7 -0,5 4 2 44 24 N 20 0 0,0
17.03.2019 05:00:00 4,5 0,0 29 15 49 27 SW 20 0 0,0
17.03.2019 04:00:00 6,3 -2,0 23 13 38 21 SW 20 0 0,0
17.03.2019 03:00:00 7,0 -4,5 17 9 29 15 SW 20 0 0,0
17.03.2019 02:00:00 7,7 -5,7 8 5 23 12 W 20 0 0,0
17.03.2019 01:00:00 8,2 -4,2 14 8 26 14 WSW 20 0 -
17.03.2019 00:00:00 8,9 -3,0 9 5 23 13 W 20 0 0,0
16.03.2019 23:00:00 10,4 -2,2 11 6 29 16 WNW 20 0 0,0
16.03.2019 22:00:00 11,5 -2,5 7 4 25 13 WSW 20 0 0,0
16.03.2019 21:00:00 12,8 -3,6 11 6 25 14 W 20 0 0,0
16.03.2019 20:00:00 14,2 -4,5 16 9 27 14 W 20 0 0,0
16.03.2019 19:00:00 16,2 0,2 14 8 39 21 W 20 45 -
16.03.2019 18:00:00 18,3 -0,5 21 11 43 23 WSW 20 60 0,0
16.03.2019 17:00:00 19,5 -3,6 22 12 44 24 WSW 20 60 0,0
16.03.2019 16:00:00 20,1 -3,6 20 11 47 26 SW 20 60 0,0
16.03.2019 15:00:00 19,8 -5,4 24 13 47 25 SSW 20 60 0,0
16.03.2019 14:00:00 19,6 -4,8 24 13 44 24 SSW 20 60 0,0
16.03.2019 13:00:00 19,1 -1,0 13 7 31 17 S 20 60 -
16.03.2019 12:00:00 18,2 -1,2 8 4 18 10 S 20 60 0,0
16.03.2019 11:00:00 13,8 2,1 3 1 6 4 NNW 20 60 0,0
16.03.2019 10:00:00 9,5 1,1 3 1 5 3 NNW 20 60 0,0
16.03.2019 09:00:00 2,5 -0,5 1 1 4 2 ENE 20 43 0,0
16.03.2019 08:00:00 -2,0 -4,2 2 1 6 4 W 20 23 0,0
16.03.2019 07:00:00 -2,6 -4,8 3 1 8 4 NNW 20 0 -
16.03.2019 06:00:00 -2,4 -4,5 2 1 4 2 SSW 20 0 0,0
16.03.2019 05:00:00 -1,8 -4,5 1 1 5 3 NE 20 0 0,0
16.03.2019 04:00:00 -1,6 -4,5 2 1 4 2 S 20 0 0,0
16.03.2019 03:00:00 -0,4 -3,9 3 1 6 3 S 20 0 0,0
16.03.2019 02:00:00 0,3 -3,6 2 1 6 3 WSW 20 0 0,0
16.03.2019 01:00:00 1,3 -3,3 3 1 5 3 S 20 0 -
16.03.2019 00:00:00 3,3 -2,2 3 1 5 3 N 20 0 0,0
15.03.2019 23:00:00 4,7 -2,7 5 3 8 4 SSW 20 0 0,0
15.03.2019 22:00:00 7,3 -2,2 1 1 10 6 SW 20 0 0,0
15.03.2019 21:00:00 9,6 -3,3 3 2 10 5 S 20 0 0,0
15.03.2019 20:00:00 12,1 -3,6 6 3 10 5 S 20 0 0,0
15.03.2019 19:00:00 17,0 -2,2 5 3 17 9 S 20 43 -
15.03.2019 18:00:00 20,5 -3,3 9 5 21 11 SW 20 60 0,0
15.03.2019 17:00:00 21,2 -2,0 10 5 23 12 SSW 20 60 0,0
15.03.2019 16:00:00 21,3 -2,0 11 6 20 11 SSW 20 60 0,0
15.03.2019 15:00:00 21,1 -3,6 9 5 21 11 SSW 20 60 0,0
15.03.2019 14:00:00 20,1 -1,2 7 4 18 10 SW 20 60 0,0
15.03.2019 13:00:00 18,3 3,0 5 3 11 6 NNW 20 60 -
15.03.2019 12:00:00 14,6 1,5 4 2 10 6 N 20 60 0,0
15.03.2019 11:00:00 10,9 1,1 3 2 9 5 N 20 60 0,0
15.03.2019 10:00:00 6,4 -0,7 3 1 6 3 N 20 60 0,0
15.03.2019 09:00:00 0,6 -2,2 0 0 5 3 N 20 41 0,0
15.03.2019 08:00:00 -4,1 -6,0 0 0 12 6 N 20 27 0,0
15.03.2019 07:00:00 -4,7 -6,7 0 0 4 2 N 20 0 -
15.03.2019 06:00:00 -4,1 -6,0 1 1 3 1 SSE 20 0 0,0
15.03.2019 05:00:00 -4,1 -6,7 3 1 5 3 S 20 0 0,0
15.03.2019 04:00:00 -3,5 -5,7 1 1 6 4 SW 20 0 0,0
15.03.2019 03:00:00 -2,4 -5,1 2 1 5 3 SE 20 0 0,0
15.03.2019 02:00:00 -2,2 -5,1 2 1 5 3 SW 20 0 0,0
15.03.2019 01:00:00 -0,6 -3,9 1 1 6 4 SE 20 0 -
15.03.2019 00:00:00 1,2 -3,0 2 1 9 5 SSE 20 0 0,0
14.03.2019 23:00:00 2,9 -2,2 6 3 9 5 SSE 20 0 0,0
14.03.2019 22:00:00 4,4 -2,2 4 2 9 5 SSW 20 0 0,0
14.03.2019 21:00:00 8,4 -0,7 1 1 12 7 NNW 20 0 0,0
14.03.2019 20:00:00 10,8 -1,2 8 4 24 13 SW 20 0 0,0
14.03.2019 19:00:00 12,6 -0,3 14 8 30 16 SSW 20 41 -
14.03.2019 18:00:00 15,5 0,9 12 7 26 14 S 20 60 0,0
14.03.2019 17:00:00 17,3 -1,4 17 9 29 16 SW 20 60 0,0
14.03.2019 16:00:00 16,7 -1,4 13 7 29 15 SSW 20 60 0,0
14.03.2019 15:00:00 16,4 -1,7 11 6 21 11 SW 20 60 0,0
14.03.2019 14:00:00 15,6 -2,0 10 5 21 12 S 20 60 0,0
14.03.2019 13:00:00 14,1 -3,6 6 3 17 9 SSE 20 60 -
14.03.2019 12:00:00 11,8 -0,7 7 4 23 12 SW 20 60 0,0
14.03.2019 11:00:00 9,3 -1,2 7 4 15 8 SW 20 60 0,0
14.03.2019 10:00:00 5,6 0,2 1 1 6 3 NNW 20 60 0,0
14.03.2019 09:00:00 0,0 -2,0 1 1 7 4 ESE 20 38 0,0
14.03.2019 08:00:00 -4,3 -6,0 1 1 5 3 E 20 23 0,0
14.03.2019 07:00:00 -4,5 -6,0 3 2 8 5 S 20 0 -
14.03.2019 06:00:00 -4,1 -5,7 4 2 5 3 SSW 20 0 0,0
14.03.2019 05:00:00 -3,9 -5,7 2 1 4 2 SSE 20 0 0,0
14.03.2019 04:00:00 -3,4 -5,7 1 1 5 3 NNE 20 0 0,0
14.03.2019 03:00:00 -2,4 -5,1 2 1 5 3 SSE 20 0 0,0
14.03.2019 02:00:00 -0,3 -3,9 3 2 7 4 NW 20 0 0,0
14.03.2019 01:00:00 1,2 -2,5 3 2 11 6 S 20 0 -
14.03.2019 00:00:00 1,0 -2,5 5 3 9 5 SSE 20 0 0,0
13.03.2019 23:00:00 0,9 -3,3 5 3 9 5 S 20 0 0,0
13.03.2019 22:00:00 2,7 -3,0 2 1 10 5 SSW 20 0 0,0
13.03.2019 21:00:00 4,3 -2,5 1 1 6 3 ESE 20 0 0,0
13.03.2019 20:00:00 6,1 -2,7 3 2 17 9 SSE 20 0 0,0
13.03.2019 19:00:00 8,3 -1,4 9 5 95 51 N 20 41 -
13.03.2019 18:00:00 11,4 -2,5 14 7 51 28 N 20 60 0,0
13.03.2019 17:00:00 12,2 -2,7 16 8 28 15 NNW 20 60 0,0
13.03.2019 16:00:00 13,2 -2,5 10 5 29 16 NNW 20 60 0,0
13.03.2019 15:00:00 - - - - - - - - - -
13.03.2019 14:00:00 12,8 -1,2 10 6 34 18 N 20 60 0,0
13.03.2019 13:00:00 11,4 -2,2 16 9 29 16 N 20 60 -
13.03.2019 12:00:00 10,4 -1,7 8 4 34 18 NNW 20 54 0,0
13.03.2019 11:00:00 9,6 -2,5 18 10 30 16 N 20 60 0,0
13.03.2019 10:00:00 7,4 -3,0 13 7 22 12 N 20 60 0,0

tt = temperature
td = dewpoint
ff = wind speed
fx = gusts
dd = wind direction
vv = visibility
sd = sunshine duration
rr = precipitation

Next stations